Eads, CO

4:15 AM MST on November 23, 2014 (GMT -0700)
West Eads | Change Station
CLOSE
Current Station
Personal Weather Station
Location: Eads, CO
Elevation: 4219 ft
Nearby Weather Stations

Elev 4219 ft 38.48 °N, 102.80 °W | Updated 3 minutes ago

Partly Cloudy
Partly Cloudy
47.1 °F
Feels Like 47 °F
N
0.0
Wind Variable Wind from NE
Gusts 0.0 mph

Today
High -- | Low -- °F
--% Chance of Precip.
Yesterday
High -- | Low -- °F
Precip. -- in
6:40 AM 4:32 PM
New Moon, 1% visible
Pressure 29.43 in
Visibility 10.0 miles
Clouds Overcast 10000 ft
Windchill 47 °F
Dew Point 16 °F
Humidity 28%
Rainfall -999.00 in
Snow Depth Not available.
UV 0 out of 12
Pollen .10 out of 12
Air Quality Not available.
Flu Activity Not available.
METAR KLAA 231053Z AUTO 31013G20KT 10SM OVC100 09/M03 A2950 RMK AO2 WSHFT 1033 SLP964 T00891033

More Conditions Fewer Conditions

Pressure 29.43 in
Visibility 10.0 miles
Clouds Overcast 10000 ft
Windchill 47 °F
Dew Point 16 °F
Humidity 28%
Rainfall -999.00 in
Snow Depth Not available.
UV 0 out of 12
Pollen .10 out of 12
Air Quality Not available.
Flu Activity Not available.
METAR KLAA 231053Z AUTO 31013G20KT 10SM OVC100 09/M03 A2950 RMK AO2 WSHFT 1033 SLP964 T00891033

More Conditions Fewer Conditions

10-Day Weather Forecast

Almanac

Astronomy

Nov. 23, 2014 Rise Set
Actual Time
Civil Twilight
Nautical Twilight
Astronomical Twilight
Moon
Length of Visible Light
Length of Day
Tomorrow will be .
, % of the Moon is Illuminated

Today's Extremes

State Highs State Lows

Community

WunderPhotos

Upload Photos

1,773,036 photos uploaded!

WunderBlogs® & News

Nearby

Air Quality

  Air Quality AQ Index Pollutant
Not available.

Snow Depth

Station Depth Elevation

Earthquake Activity

City Distance Mag. Time & Date
Minimum magnitude displayed is 2.5.

Coastal Water Temperatures

Place Temperature

Nearby Weather Stations